createdAt,value
2023-04-30T00:00:59.662Z,55.53
2023-04-30T00:02:03.190Z,55.93
2023-04-30T00:03:07.640Z,55.73
2023-04-30T00:04:11.565Z,55.49
2023-04-30T00:05:14.935Z,55.61
2023-04-30T00:06:18.276Z,55.65
2023-04-30T00:07:21.182Z,55.82
2023-04-30T00:08:25.034Z,55.86
2023-04-30T00:09:28.275Z,55.73
2023-04-30T00:10:31.528Z,55.80
2023-04-30T00:11:34.719Z,56.06
2023-04-30T00:12:40.757Z,55.99
2023-04-30T00:13:45.125Z,56.04
2023-04-30T00:14:51.128Z,55.55
2023-04-30T00:15:55.788Z,55.86
2023-04-30T00:16:58.960Z,55.88
2023-04-30T00:18:02.798Z,55.86
2023-04-30T00:19:05.213Z,55.96
2023-04-30T00:20:08.698Z,55.84
2023-04-30T00:21:15.258Z,55.74
2023-04-30T00:22:18.293Z,55.81
2023-04-30T00:23:21.714Z,55.88
2023-04-30T00:24:28.414Z,56.26
2023-04-30T00:25:33.432Z,56.18
2023-04-30T00:26:38.624Z,56.29
2023-04-30T00:27:41.272Z,56.54
2023-04-30T00:28:45.207Z,56.76
2023-04-30T00:29:48.460Z,56.71
2023-04-30T00:30:50.979Z,56.74
2023-04-30T00:31:54.266Z,56.87
2023-04-30T00:32:57.801Z,56.80
2023-04-30T00:34:03.703Z,57.04
2023-04-30T00:35:07.270Z,56.80
2023-04-30T00:36:10.719Z,56.83
2023-04-30T00:37:13.025Z,57.29
2023-04-30T00:38:17.584Z,57.36
2023-04-30T00:39:23.300Z,57.20
2023-04-30T00:40:27.409Z,57.32
2023-04-30T00:41:30.490Z,57.54
2023-04-30T00:42:34.206Z,57.64
2023-04-30T00:43:40.425Z,57.30
2023-04-30T00:45:49.353Z,57.78
2023-04-30T00:46:52.836Z,57.74
2023-04-30T00:47:56.185Z,58.03
2023-04-30T00:49:00.780Z,58.10
2023-04-30T00:50:03.960Z,58.02
2023-04-30T00:51:07.343Z,58.45
2023-04-30T00:52:10.389Z,58.38
2023-04-30T00:53:14.714Z,58.70
2023-04-30T00:54:19.684Z,58.87
2023-04-30T00:55:24.596Z,59.26
2023-04-30T00:56:29.596Z,59.39
2023-04-30T00:57:33.490Z,59.50
2023-04-30T00:58:36.386Z,59.58
2023-04-30T00:59:41.916Z,59.95
2023-04-30T01:00:46.965Z,60.12
2023-04-30T01:01:50.085Z,60.12
2023-04-30T01:02:53.874Z,60.55
2023-04-30T01:03:57.543Z,60.67
2023-04-30T01:05:00.985Z,60.73
2023-04-30T01:06:03.677Z,60.84
2023-04-30T01:07:09.013Z,61.12
2023-04-30T01:08:15.458Z,61.36
2023-04-30T01:09:22.853Z,61.37
2023-04-30T01:10:31.681Z,61.73
2023-04-30T01:11:36.201Z,61.85
2023-04-30T01:12:43.153Z,61.68
2023-04-30T01:14:04.140Z,61.44
2023-04-30T01:15:11.899Z,61.96
2023-04-30T01:16:25.025Z,62.18
2023-04-30T01:17:34.782Z,62.37
2023-04-30T01:18:40.305Z,62.35
2023-04-30T01:19:45.681Z,62.28
2023-04-30T01:20:56.058Z,62.73
2023-04-30T01:22:02.382Z,62.47
2023-04-30T01:23:17.693Z,62.55
2023-04-30T01:24:38.432Z,62.57
2023-04-30T01:25:43.461Z,63.08
2023-04-30T01:27:05.810Z,62.86
2023-04-30T01:28:10.481Z,62.96
2023-04-30T01:29:17.413Z,62.90
2023-04-30T01:30:24.867Z,63.00
2023-04-30T01:31:28.855Z,63.01
2023-04-30T01:32:35.165Z,63.21
2023-04-30T01:33:38.753Z,63.04
2023-04-30T01:34:42.563Z,63.37
2023-04-30T01:36:06.329Z,63.50
2023-04-30T01:37:11.499Z,63.05
2023-04-30T01:38:21.603Z,63.22
2023-04-30T01:39:42.262Z,63.04
2023-04-30T01:40:49.700Z,63.11
2023-04-30T01:42:01.028Z,63.22
2023-04-30T01:43:22.165Z,63.29
2023-04-30T01:44:27.801Z,63.54
2023-04-30T01:45:35.826Z,63.59
2023-04-30T01:46:39.200Z,63.70
2023-04-30T01:47:47.719Z,63.65
2023-04-30T01:49:10.637Z,64.21
2023-04-30T01:50:30.914Z,63.83
2023-04-30T01:51:46.598Z,63.63
2023-04-30T01:52:53.123Z,63.48
2023-04-30T01:53:59.359Z,63.58
2023-04-30T01:55:04.511Z,63.66
2023-04-30T01:56:11.901Z,64.21
2023-04-30T01:57:19.044Z,63.79
2023-04-30T01:58:23.527Z,63.82
2023-04-30T01:59:27.527Z,64.07
2023-04-30T02:00:33.806Z,63.92
2023-04-30T02:01:37.716Z,63.95
2023-04-30T02:02:41.704Z,64.27
2023-04-30T02:03:46.218Z,64.40
2023-04-30T02:04:49.739Z,64.34
2023-04-30T02:05:53.091Z,64.74
2023-04-30T02:07:00.582Z,64.76
2023-04-30T02:08:04.525Z,64.77
2023-04-30T02:09:06.777Z,65.02
2023-04-30T02:10:10.630Z,65.43
2023-04-30T02:11:15.542Z,65.32
2023-04-30T02:12:19.183Z,65.20
2023-04-30T02:13:22.689Z,65.26
2023-04-30T02:14:25.135Z,65.17
2023-04-30T02:15:29.595Z,65.38
2023-04-30T02:16:33.193Z,65.65
2023-04-30T02:17:36.647Z,65.36
2023-04-30T02:18:39.376Z,65.63
2023-04-30T02:19:42.045Z,65.79
2023-04-30T02:20:45.432Z,65.80
2023-04-30T02:21:48.545Z,65.73
2023-04-30T02:22:52.235Z,65.97
2023-04-30T02:23:55.388Z,66.00
2023-04-30T02:24:58.835Z,66.04
2023-04-30T02:26:04.846Z,66.38
2023-04-30T02:27:08.553Z,66.12
2023-04-30T02:28:12.067Z,66.27
2023-04-30T02:29:14.534Z,66.09
2023-04-30T02:30:20.027Z,66.59
2023-04-30T02:31:24.807Z,66.57
2023-04-30T02:32:29.452Z,66.60
2023-04-30T02:33:32.634Z,66.54
2023-04-30T02:34:34.863Z,66.65
2023-04-30T02:35:42.541Z,66.79
2023-04-30T02:36:45.954Z,66.70
2023-04-30T02:37:49.323Z,66.91
2023-04-30T02:38:53.354Z,67.39
2023-04-30T02:39:56.965Z,67.73
2023-04-30T02:41:03.010Z,67.77
2023-04-30T02:42:10.135Z,67.66
2023-04-30T02:43:13.169Z,67.56
2023-04-30T02:44:19.182Z,67.80
2023-04-30T02:45:24.734Z,67.97
2023-04-30T02:46:28.466Z,67.85
2023-04-30T02:47:31.649Z,67.83
2023-04-30T02:48:35.161Z,67.77
2023-04-30T02:49:40.276Z,68.28
2023-04-30T02:50:44.978Z,67.85
2023-04-30T02:51:48.528Z,68.11
2023-04-30T02:52:51.734Z,67.79
2023-04-30T02:53:54.553Z,67.95
2023-04-30T02:54:58.040Z,67.92
2023-04-30T02:56:04.048Z,68.26
2023-04-30T02:57:07.948Z,68.00
2023-04-30T02:58:13.912Z,68.12
2023-04-30T02:59:17.320Z,67.98
2023-04-30T03:00:25.426Z,68.02
2023-04-30T03:01:30.345Z,68.48
2023-04-30T03:02:34.891Z,68.64
2023-04-30T03:03:38.212Z,68.48
2023-04-30T03:04:42.245Z,68.71
2023-04-30T03:05:45.648Z,68.88
2023-04-30T03:06:49.081Z,69.39
2023-04-30T03:07:53.276Z,69.20
2023-04-30T03:08:58.234Z,68.98
2023-04-30T03:10:01.659Z,69.06
2023-04-30T03:11:04.529Z,68.91
2023-04-30T03:12:08.161Z,69.34
2023-04-30T03:13:11.326Z,69.10
2023-04-30T03:14:14.955Z,69.24
2023-04-30T03:15:20.099Z,69.01
2023-04-30T03:16:26.829Z,68.92
2023-04-30T03:17:30.551Z,68.78
2023-04-30T03:18:33.456Z,68.73
2023-04-30T03:19:37.173Z,68.91
2023-04-30T03:20:41.459Z,68.96
2023-04-30T03:21:44.911Z,68.85
2023-04-30T03:22:48.200Z,68.85
2023-04-30T03:23:54.085Z,69.14
2023-04-30T03:24:57.521Z,69.34
2023-04-30T03:26:02.639Z,69.19
2023-04-30T03:27:06.201Z,69.42
2023-04-30T03:28:11.160Z,69.47
2023-04-30T03:29:14.661Z,69.74
2023-04-30T03:30:19.220Z,69.86
2023-04-30T03:31:23.008Z,69.53
2023-04-30T03:32:26.654Z,69.48
2023-04-30T03:33:30.079Z,69.14
2023-04-30T03:34:34.709Z,69.02
2023-04-30T03:35:37.579Z,69.03
2023-04-30T03:36:43.747Z,68.98
2023-04-30T03:37:46.900Z,69.49
2023-04-30T03:38:50.501Z,69.47
2023-04-30T03:39:55.597Z,69.55
2023-04-30T03:41:00.346Z,69.35
2023-04-30T03:42:03.094Z,69.76
2023-04-30T03:43:05.992Z,69.97
2023-04-30T03:44:14.832Z,69.73
2023-04-30T03:45:18.425Z,69.70
2023-04-30T03:46:21.028Z,69.95
2023-04-30T03:47:24.615Z,70.13
2023-04-30T03:48:27.272Z,70.43
2023-04-30T03:49:32.966Z,70.31
2023-04-30T03:50:37.292Z,70.04
2023-04-30T03:51:42.366Z,69.77
2023-04-30T03:52:47.862Z,69.84
2023-04-30T03:53:52.628Z,69.83
2023-04-30T03:54:58.212Z,70.07
2023-04-30T03:56:04.456Z,69.73
2023-04-30T03:57:09.515Z,69.95
2023-04-30T03:58:16.153Z,68.96
2023-04-30T03:59:19.902Z,69.18
2023-04-30T04:00:23.360Z,69.00
2023-04-30T04:01:28.121Z,69.28
2023-04-30T04:02:33.181Z,69.21
2023-04-30T04:03:37.020Z,69.45
2023-04-30T04:04:39.823Z,69.09
2023-04-30T04:05:42.666Z,68.97
2023-04-30T04:06:47.316Z,69.25
2023-04-30T04:07:50.545Z,68.68
2023-04-30T04:08:54.231Z,68.47
2023-04-30T04:09:58.631Z,68.42
2023-04-30T04:11:03.379Z,68.39
2023-04-30T04:12:07.703Z,68.66
2023-04-30T04:13:17.850Z,68.79
2023-04-30T04:14:24.123Z,68.74
2023-04-30T04:15:31.441Z,68.61
2023-04-30T04:16:34.905Z,68.66
2023-04-30T04:17:38.831Z,68.34
2023-04-30T04:18:41.549Z,67.81
2023-04-30T04:19:45.478Z,67.80
2023-04-30T04:20:49.715Z,67.76
2023-04-30T04:21:53.201Z,67.80
2023-04-30T04:22:57.573Z,67.65
2023-04-30T04:24:03.076Z,67.79
2023-04-30T04:25:07.706Z,67.58
2023-04-30T04:26:11.315Z,66.83
2023-04-30T04:27:17.934Z,67.16
2023-04-30T04:28:21.970Z,67.63
2023-04-30T04:29:25.505Z,66.86
2023-04-30T04:30:29.927Z,66.85
2023-04-30T04:31:34.743Z,67.11
2023-04-30T04:32:40.085Z,66.82
2023-04-30T04:33:43.345Z,66.77
2023-04-30T04:34:50.317Z,66.61
2023-04-30T04:35:54.353Z,66.23
2023-04-30T04:37:01.396Z,66.21
2023-04-30T04:38:07.712Z,66.32
2023-04-30T04:39:13.033Z,66.16
2023-04-30T04:40:16.830Z,66.33
2023-04-30T04:41:20.425Z,66.11
2023-04-30T04:42:24.242Z,66.11
2023-04-30T04:43:27.565Z,66.32
2023-04-30T04:44:32.599Z,66.32
2023-04-30T04:45:35.384Z,65.86
2023-04-30T04:46:40.379Z,65.57
2023-04-30T04:47:43.900Z,65.97
2023-04-30T04:48:47.872Z,65.90
2023-04-30T04:49:51.169Z,66.11
2023-04-30T04:50:57.149Z,65.59
2023-04-30T04:52:00.370Z,65.14
2023-04-30T04:53:04.096Z,65.64
2023-04-30T04:54:08.465Z,64.86
2023-04-30T04:55:13.940Z,65.30
2023-04-30T04:56:17.651Z,65.11
2023-04-30T04:57:20.404Z,64.23
2023-04-30T04:58:23.733Z,64.18
2023-04-30T04:59:30.097Z,63.92
2023-04-30T05:00:37.393Z,64.01
2023-04-30T05:01:40.869Z,64.04
2023-04-30T05:02:44.365Z,64.19
2023-04-30T05:03:47.802Z,64.13
2023-04-30T05:04:52.816Z,63.66
2023-04-30T05:05:57.359Z,63.42
2023-04-30T05:07:02.392Z,63.25
2023-04-30T05:08:06.638Z,63.17
2023-04-30T05:09:12.074Z,63.54
2023-04-30T05:10:20.374Z,63.15
2023-04-30T05:11:23.785Z,62.90
2023-04-30T05:12:27.664Z,62.76
2023-04-30T05:13:31.684Z,62.59
2023-04-30T05:14:33.937Z,62.12
2023-04-30T05:15:37.874Z,61.95
2023-04-30T05:16:40.796Z,62.12
2023-04-30T05:17:44.075Z,62.15
2023-04-30T05:18:47.538Z,61.74
2023-04-30T05:19:50.403Z,61.64
2023-04-30T05:20:53.741Z,61.41
2023-04-30T05:21:57.215Z,61.56
2023-04-30T05:23:00.749Z,61.84
2023-04-30T05:24:04.537Z,61.31
2023-04-30T05:25:08.359Z,61.20
2023-04-30T05:26:10.924Z,60.58
2023-04-30T05:27:14.313Z,60.54
2023-04-30T05:28:17.426Z,60.37
2023-04-30T05:29:21.045Z,60.20
2023-04-30T05:30:24.629Z,59.99
2023-04-30T05:31:27.498Z,59.43
2023-04-30T05:32:30.640Z,59.34
2023-04-30T05:33:34.726Z,59.37
2023-04-30T05:34:38.125Z,58.75
2023-04-30T05:35:41.839Z,58.24
2023-04-30T05:36:45.345Z,58.05
2023-04-30T05:37:49.169Z,58.18
2023-04-30T05:38:52.470Z,58.10
2023-04-30T05:39:55.972Z,56.38
2023-04-30T05:40:59.680Z,56.76
2023-04-30T05:42:03.731Z,56.49
2023-04-30T05:43:13.906Z,56.31
2023-04-30T05:44:17.931Z,55.54
2023-04-30T05:45:23.491Z,55.30
2023-04-30T05:46:26.833Z,55.92
2023-04-30T05:47:30.735Z,55.44
2023-04-30T05:48:34.229Z,55.14
2023-04-30T05:49:38.060Z,55.36
2023-04-30T05:50:41.667Z,53.75
2023-04-30T05:51:44.023Z,54.37
2023-04-30T05:52:49.537Z,54.29
2023-04-30T05:53:58.413Z,53.89
2023-04-30T05:55:01.777Z,53.69
2023-04-30T05:56:08.173Z,53.23
2023-04-30T05:57:11.071Z,52.18
2023-04-30T05:58:14.664Z,52.51
2023-04-30T05:59:18.595Z,52.11
2023-04-30T06:00:25.189Z,52.37
2023-04-30T06:01:29.800Z,52.30
2023-04-30T06:02:33.283Z,52.22
2023-04-30T06:03:36.042Z,51.99
2023-04-30T06:04:39.568Z,52.07
2023-04-30T06:05:43.748Z,52.70
2023-04-30T06:06:46.470Z,52.17
2023-04-30T06:07:50.933Z,52.30
2023-04-30T06:08:56.931Z,52.19
2023-04-30T06:10:00.436Z,52.17
2023-04-30T06:11:04.663Z,51.93
2023-04-30T06:12:07.335Z,52.03
2023-04-30T06:13:10.663Z,51.62
2023-04-30T06:14:14.342Z,51.31
2023-04-30T06:15:17.853Z,51.96
2023-04-30T06:16:20.674Z,51.65
2023-04-30T06:17:26.138Z,51.37
2023-04-30T06:18:28.678Z,51.00
2023-04-30T06:19:31.976Z,51.43
2023-04-30T06:20:35.059Z,51.19
2023-04-30T06:21:38.357Z,51.45
2023-04-30T06:22:41.447Z,51.08
2023-04-30T06:23:44.946Z,50.75
2023-04-30T06:24:48.129Z,50.86
2023-04-30T06:25:51.360Z,50.85
2023-04-30T06:26:55.308Z,50.30
2023-04-30T06:27:59.899Z,50.78
2023-04-30T06:29:05.296Z,50.62
2023-04-30T06:30:09.849Z,50.32
2023-04-30T06:31:14.179Z,50.90
2023-04-30T06:32:18.799Z,50.11
2023-04-30T06:33:22.346Z,49.80
2023-04-30T06:34:25.845Z,49.37
2023-04-30T06:35:28.406Z,49.63
2023-04-30T06:36:31.193Z,49.42
2023-04-30T06:37:35.424Z,49.39
2023-04-30T06:38:40.219Z,49.43
2023-04-30T06:39:43.472Z,49.29
2023-04-30T06:40:46.978Z,48.43
2023-04-30T06:41:52.779Z,49.18
2023-04-30T06:42:59.313Z,48.92
2023-04-30T06:44:04.599Z,49.72
2023-04-30T06:45:08.102Z,48.15
2023-04-30T06:46:12.991Z,48.36
2023-04-30T06:47:17.307Z,47.98
2023-04-30T06:48:21.537Z,48.27
2023-04-30T06:49:24.660Z,47.55
2023-04-30T06:50:27.388Z,47.68
2023-04-30T06:51:31.743Z,47.98
2023-04-30T06:52:35.663Z,47.62
2023-04-30T06:53:38.742Z,47.94
2023-04-30T06:54:43.546Z,48.12
2023-04-30T06:55:49.521Z,48.15
2023-04-30T06:56:53.340Z,47.72
2023-04-30T06:57:58.027Z,47.81
2023-04-30T06:59:01.417Z,47.46
2023-04-30T07:00:09.274Z,48.00
2023-04-30T07:01:12.543Z,48.30
2023-04-30T07:02:17.135Z,48.40
2023-04-30T07:03:21.128Z,48.51
2023-04-30T07:04:25.393Z,47.89
2023-04-30T07:05:29.321Z,48.09
2023-04-30T07:06:32.671Z,47.86
2023-04-30T07:07:35.385Z,47.16
2023-04-30T07:08:41.329Z,47.28
2023-04-30T07:09:45.006Z,47.60
2023-04-30T07:10:48.289Z,47.90
2023-04-30T07:11:53.690Z,47.74
2023-04-30T07:12:57.408Z,47.38
2023-04-30T07:14:00.621Z,47.68
2023-04-30T07:15:07.688Z,47.20
2023-04-30T07:16:14.510Z,46.97
2023-04-30T07:17:18.235Z,47.51
2023-04-30T07:18:21.196Z,47.88
2023-04-30T07:19:26.472Z,47.35
2023-04-30T07:20:32.069Z,47.67
2023-04-30T07:21:34.321Z,47.02
2023-04-30T07:22:37.085Z,47.09
2023-04-30T07:23:40.492Z,47.06
2023-04-30T07:24:43.149Z,47.19
2023-04-30T07:25:46.667Z,47.47
2023-04-30T07:26:50.171Z,47.59
2023-04-30T07:27:53.781Z,47.49
2023-04-30T07:28:59.094Z,46.87
2023-04-30T07:31:18.094Z,46.17
2023-04-30T07:32:21.626Z,45.87
2023-04-30T07:33:25.274Z,46.03
2023-04-30T07:34:27.754Z,46.32
2023-04-30T07:35:31.705Z,46.23
2023-04-30T07:36:34.030Z,46.02
2023-04-30T07:37:39.076Z,45.76
2023-04-30T07:38:42.512Z,45.90
2023-04-30T07:39:45.954Z,45.53
2023-04-30T07:40:49.316Z,45.75
2023-04-30T07:41:52.636Z,45.75
2023-04-30T07:42:57.143Z,44.60
2023-04-30T07:44:00.298Z,45.02
2023-04-30T07:45:05.112Z,44.78
2023-04-30T07:46:08.630Z,44.62
2023-04-30T07:47:14.430Z,44.05
2023-04-30T07:48:18.661Z,44.03
2023-04-30T07:49:23.518Z,43.83
2023-04-30T07:50:32.258Z,43.62
2023-04-30T07:51:39.487Z,42.61
2023-04-30T07:52:42.173Z,42.19
2023-04-30T07:53:46.915Z,42.14
2023-04-30T07:54:50.778Z,41.90
2023-04-30T07:55:54.260Z,41.31
2023-04-30T07:56:56.978Z,41.27
2023-04-30T07:58:01.417Z,41.41
2023-04-30T07:59:04.775Z,41.32
2023-04-30T08:00:08.909Z,40.83
2023-04-30T08:01:14.077Z,39.92
2023-04-30T08:02:18.270Z,39.75
2023-04-30T08:03:21.925Z,39.84
2023-04-30T08:04:25.751Z,39.45
2023-04-30T08:05:29.467Z,39.28
2023-04-30T08:06:31.844Z,38.65
2023-04-30T08:07:36.786Z,38.89
2023-04-30T08:08:41.318Z,38.74
2023-04-30T08:09:44.337Z,38.04
2023-04-30T08:10:51.032Z,37.57
2023-04-30T08:11:54.661Z,37.35
2023-04-30T08:12:58.944Z,37.20
2023-04-30T08:14:03.253Z,37.27
2023-04-30T08:15:09.790Z,36.95
2023-04-30T08:16:14.278Z,36.22
2023-04-30T08:17:17.558Z,36.61
2023-04-30T08:18:21.670Z,36.19
2023-04-30T08:19:25.126Z,36.50
2023-04-30T08:20:29.080Z,36.53
2023-04-30T08:21:33.810Z,36.51
2023-04-30T08:22:38.286Z,36.03
2023-04-30T08:23:41.895Z,36.48
2023-04-30T08:24:45.190Z,36.62
2023-04-30T08:25:47.962Z,36.84
2023-04-30T08:26:54.715Z,36.49
2023-04-30T08:27:58.093Z,36.42
2023-04-30T08:29:02.174Z,36.08
2023-04-30T08:30:07.958Z,36.59
2023-04-30T08:31:11.469Z,35.90
2023-04-30T08:32:16.023Z,36.21
2023-04-30T08:33:22.191Z,36.44
2023-04-30T08:34:25.611Z,36.17
2023-04-30T08:35:31.078Z,35.56
2023-04-30T08:36:35.228Z,35.38
2023-04-30T08:37:38.002Z,35.38
2023-04-30T08:38:41.509Z,35.54
2023-04-30T08:39:44.638Z,36.31
2023-04-30T08:40:51.932Z,36.21
2023-04-30T08:41:57.662Z,36.26
2023-04-30T08:43:03.051Z,36.27
2023-04-30T08:44:08.335Z,37.25
2023-04-30T08:45:12.806Z,36.29
2023-04-30T08:46:18.711Z,36.33
2023-04-30T08:47:24.184Z,35.97
2023-04-30T08:48:28.097Z,36.35
2023-04-30T08:49:33.424Z,36.49
2023-04-30T08:50:37.091Z,36.86
2023-04-30T08:51:40.697Z,37.18
2023-04-30T08:52:44.729Z,36.56
2023-04-30T08:53:53.479Z,36.54
2023-04-30T08:54:58.315Z,36.78
2023-04-30T08:56:01.668Z,36.66
2023-04-30T08:57:06.052Z,36.70
2023-04-30T08:58:10.826Z,36.57
2023-04-30T08:59:14.471Z,36.43
2023-04-30T09:00:18.368Z,36.47
2023-04-30T09:01:23.465Z,36.50
2023-04-30T09:02:25.980Z,36.53
2023-04-30T09:03:32.551Z,36.25
2023-04-30T09:04:36.555Z,36.33
2023-04-30T09:05:40.685Z,36.56
2023-04-30T09:06:43.414Z,36.36
2023-04-30T09:08:01.580Z,36.17
2023-04-30T09:08:55.152Z,36.38
2023-04-30T09:10:00.334Z,35.89
2023-04-30T09:11:04.261Z,34.98
2023-04-30T09:12:20.031Z,34.85
2023-04-30T09:13:23.801Z,35.04
2023-04-30T09:14:27.459Z,35.43
2023-04-30T09:15:32.364Z,36.02
2023-04-30T09:16:52.633Z,35.87
2023-04-30T09:17:59.803Z,35.96
2023-04-30T09:19:03.147Z,35.14
2023-04-30T09:21:33.364Z,34.33
2023-04-30T09:22:37.705Z,34.98
2023-04-30T09:24:00.956Z,35.08
2023-04-30T09:25:04.186Z,35.44
2023-04-30T09:26:07.338Z,35.33
2023-04-30T09:27:17.776Z,35.52
2023-04-30T09:28:27.368Z,35.11
2023-04-30T09:29:37.717Z,35.47
2023-04-30T09:30:42.962Z,35.26
2023-04-30T09:31:47.603Z,35.62
2023-04-30T09:32:58.229Z,35.06
2023-04-30T09:34:00.698Z,34.97
2023-04-30T09:35:03.030Z,35.06
2023-04-30T09:36:10.344Z,35.02
2023-04-30T09:37:14.227Z,34.79
2023-04-30T09:38:30.387Z,35.43
2023-04-30T09:39:37.222Z,34.83
2023-04-30T09:41:56.870Z,34.67
2023-04-30T09:43:01.967Z,34.55
2023-04-30T09:44:05.359Z,34.99
2023-04-30T09:45:12.810Z,34.64
2023-04-30T09:46:21.464Z,35.06
2023-04-30T09:47:26.749Z,35.33
2023-04-30T09:48:29.174Z,35.35
2023-04-30T09:49:35.609Z,34.71
2023-04-30T09:50:42.725Z,34.75
2023-04-30T09:51:57.379Z,34.05
2023-04-30T09:53:10.179Z,34.46
2023-04-30T09:54:18.044Z,34.67
2023-04-30T09:55:23.525Z,35.21
2023-04-30T09:56:27.455Z,34.99
2023-04-30T09:57:33.149Z,35.46
2023-04-30T09:58:39.533Z,34.17
2023-04-30T09:59:44.875Z,34.19
2023-04-30T10:00:50.217Z,34.41
2023-04-30T10:01:53.422Z,34.73
2023-04-30T10:02:58.831Z,34.52
2023-04-30T10:04:02.315Z,33.73
2023-04-30T10:05:06.902Z,33.92
2023-04-30T10:06:13.336Z,33.28
2023-04-30T10:07:18.782Z,33.38
2023-04-30T10:08:26.950Z,33.93
2023-04-30T10:09:33.318Z,33.97
2023-04-30T10:10:39.651Z,33.44
2023-04-30T10:11:44.304Z,33.60
2023-04-30T10:12:52.182Z,33.51
2023-04-30T10:13:56.848Z,33.82
2023-04-30T10:15:02.237Z,33.30
2023-04-30T10:16:07.453Z,33.35
2023-04-30T10:17:12.795Z,33.41
2023-04-30T10:18:23.807Z,33.62
2023-04-30T10:19:30.160Z,32.80
2023-04-30T10:20:35.327Z,33.13
2023-04-30T10:21:39.959Z,33.09
2023-04-30T10:22:44.524Z,32.94
2023-04-30T10:23:49.310Z,32.88
2023-04-30T10:24:55.372Z,32.97
2023-04-30T10:25:59.533Z,32.67
2023-04-30T10:27:03.873Z,33.23
2023-04-30T10:28:08.839Z,33.36
2023-04-30T10:29:13.483Z,32.97
2023-04-30T10:30:17.229Z,33.13
2023-04-30T10:31:21.869Z,33.43
2023-04-30T10:32:27.136Z,32.68
2023-04-30T10:33:35.004Z,32.44
2023-04-30T10:34:54.555Z,32.52
2023-04-30T10:35:59.655Z,32.44
2023-04-30T10:37:07.376Z,32.47
2023-04-30T10:39:25.769Z,33.04
2023-04-30T10:40:29.094Z,32.92
2023-04-30T10:41:32.241Z,33.11
2023-04-30T10:42:36.318Z,33.36
2023-04-30T10:43:38.744Z,32.87
2023-04-30T10:44:42.075Z,33.00
2023-04-30T10:45:47.464Z,33.06
2023-04-30T10:46:53.022Z,33.39
2023-04-30T10:47:57.724Z,33.12
2023-04-30T10:49:02.334Z,33.04
2023-04-30T10:50:06.074Z,33.79
2023-04-30T10:51:09.444Z,33.68
2023-04-30T10:52:13.626Z,33.86
2023-04-30T10:53:18.942Z,34.03
2023-04-30T10:54:30.613Z,34.27
2023-04-30T10:55:34.535Z,34.27
2023-04-30T10:56:38.146Z,33.56
2023-04-30T10:57:43.832Z,33.45
2023-04-30T10:58:47.767Z,33.19
2023-04-30T10:59:53.367Z,33.30
2023-04-30T11:01:04.844Z,33.50
2023-04-30T11:02:11.152Z,33.45
2023-04-30T11:03:15.260Z,33.41
2023-04-30T11:04:18.503Z,33.86
2023-04-30T11:05:23.948Z,33.74
2023-04-30T11:06:33.477Z,32.86
2023-04-30T11:07:37.145Z,32.93
2023-04-30T11:08:42.482Z,33.31
2023-04-30T11:09:47.783Z,33.12
2023-04-30T11:10:59.338Z,33.15
2023-04-30T11:12:06.278Z,33.68
2023-04-30T11:13:12.476Z,33.01
2023-04-30T11:14:17.681Z,32.70
2023-04-30T11:15:21.893Z,32.21
2023-04-30T11:16:31.257Z,32.64
2023-04-30T11:17:35.174Z,32.76
2023-04-30T11:18:43.005Z,32.39
2023-04-30T11:19:50.660Z,32.34
2023-04-30T11:20:56.381Z,31.99
2023-04-30T11:22:07.894Z,32.46
2023-04-30T11:23:19.738Z,32.72
2023-04-30T11:24:23.621Z,32.56
2023-04-30T11:25:27.923Z,32.11
2023-04-30T11:26:31.246Z,32.22
2023-04-30T11:27:35.772Z,32.47
2023-04-30T11:28:40.153Z,32.30
2023-04-30T11:29:45.468Z,32.27
2023-04-30T11:30:51.396Z,32.21
2023-04-30T11:31:55.367Z,32.63
2023-04-30T11:33:03.382Z,32.45
2023-04-30T11:34:06.410Z,32.83
2023-04-30T11:35:10.438Z,32.54
2023-04-30T11:36:14.873Z,32.84
2023-04-30T11:37:25.683Z,33.20
2023-04-30T11:38:34.917Z,33.20
2023-04-30T11:39:39.617Z,33.02
2023-04-30T11:40:43.407Z,33.02
2023-04-30T11:41:46.907Z,33.47
2023-04-30T11:42:49.385Z,34.12
2023-04-30T11:43:52.787Z,34.45
2023-04-30T11:45:08.239Z,33.56
2023-04-30T11:46:12.566Z,33.82
2023-04-30T11:47:19.203Z,33.47
2023-04-30T11:48:24.773Z,33.35
2023-04-30T11:49:29.001Z,34.02
2023-04-30T11:50:35.329Z,32.83
2023-04-30T11:51:39.559Z,32.89
2023-04-30T11:52:45.050Z,32.77
2023-04-30T11:53:49.933Z,32.96
2023-04-30T11:54:55.099Z,33.34
2023-04-30T11:55:59.116Z,33.60
2023-04-30T11:57:05.035Z,34.19
2023-04-30T11:58:10.209Z,34.34
2023-04-30T11:59:12.598Z,33.73
2023-04-30T12:00:20.253Z,32.60
2023-04-30T12:01:24.482Z,32.92
2023-04-30T12:02:30.207Z,32.93
2023-04-30T12:03:33.494Z,32.99
2023-04-30T12:04:40.213Z,33.06
2023-04-30T12:05:46.253Z,33.37
2023-04-30T12:06:50.647Z,33.23
2023-04-30T12:07:58.690Z,33.21
2023-04-30T12:09:03.792Z,33.02
2023-04-30T12:10:07.882Z,32.60
2023-04-30T12:11:26.948Z,32.82
2023-04-30T12:12:31.191Z,32.80
2023-04-30T12:13:34.748Z,33.22
2023-04-30T12:14:37.570Z,33.31
2023-04-30T12:15:42.009Z,34.60
2023-04-30T12:16:46.529Z,33.65
2023-04-30T12:17:49.566Z,33.46
2023-04-30T12:18:54.913Z,33.63
2023-04-30T12:20:00.173Z,33.45
2023-04-30T12:21:06.186Z,33.53
2023-04-30T12:22:10.586Z,34.46
2023-04-30T12:23:14.481Z,33.93
2023-04-30T12:24:19.069Z,34.04
2023-04-30T12:25:23.346Z,33.86
2023-04-30T12:26:40.401Z,33.66
2023-04-30T12:27:47.186Z,33.91
2023-04-30T12:28:53.415Z,33.71
2023-04-30T12:29:57.211Z,33.88
2023-04-30T12:30:59.894Z,34.64
2023-04-30T12:32:03.996Z,34.30
2023-04-30T12:33:10.432Z,34.25
2023-04-30T12:34:15.263Z,34.08
2023-04-30T12:35:19.240Z,35.03
2023-04-30T12:36:23.750Z,34.75
2023-04-30T12:37:27.545Z,34.60
2023-04-30T12:38:32.368Z,34.69
2023-04-30T12:39:37.119Z,34.12
2023-04-30T12:40:43.278Z,34.60
2023-04-30T12:41:49.406Z,34.22
2023-04-30T12:42:54.037Z,34.12
2023-04-30T12:44:14.867Z,33.90
2023-04-30T12:45:37.200Z,33.57
2023-04-30T12:46:42.742Z,33.85
2023-04-30T12:47:46.066Z,34.19
2023-04-30T12:48:52.649Z,33.46
2023-04-30T12:49:56.293Z,33.43
2023-04-30T12:51:03.262Z,33.16
2023-04-30T12:52:08.542Z,33.57
2023-04-30T12:53:12.258Z,33.69
2023-04-30T12:54:15.772Z,33.66
2023-04-30T12:55:21.138Z,33.84
2023-04-30T12:56:27.667Z,34.08
2023-04-30T12:57:32.324Z,34.45
2023-04-30T12:58:37.613Z,33.91
2023-04-30T12:59:44.148Z,34.07
2023-04-30T13:00:48.477Z,34.19
2023-04-30T13:01:51.859Z,34.78
2023-04-30T13:02:54.312Z,34.18
2023-04-30T13:03:56.992Z,34.47
2023-04-30T13:05:03.631Z,34.58
2023-04-30T13:06:08.745Z,33.86
2023-04-30T13:07:12.647Z,33.83
2023-04-30T13:08:16.534Z,33.79
2023-04-30T13:09:23.592Z,34.00
2023-04-30T13:10:26.837Z,34.31
2023-04-30T13:11:30.456Z,34.48
2023-04-30T13:12:34.043Z,34.59
2023-04-30T13:13:36.707Z,33.88
2023-04-30T13:14:40.299Z,34.55
2023-04-30T13:15:47.196Z,35.17
2023-04-30T13:16:50.033Z,34.38
2023-04-30T13:17:55.070Z,34.63
2023-04-30T13:19:02.275Z,34.36
2023-04-30T13:20:08.228Z,34.41
2023-04-30T13:21:11.788Z,34.08
2023-04-30T13:22:14.135Z,34.13
2023-04-30T13:23:20.797Z,34.18
2023-04-30T13:24:24.613Z,34.27
2023-04-30T13:25:27.902Z,34.54
2023-04-30T13:26:30.156Z,34.71
2023-04-30T13:27:34.698Z,34.54
2023-04-30T13:28:41.364Z,34.63
2023-04-30T13:29:46.642Z,34.90
2023-04-30T13:30:50.095Z,34.97
2023-04-30T13:31:53.651Z,34.56
2023-04-30T13:33:00.164Z,34.73
2023-04-30T13:34:02.935Z,34.97
2023-04-30T13:35:08.114Z,34.84
2023-04-30T13:36:11.934Z,35.16
2023-04-30T13:37:17.160Z,35.03
2023-04-30T13:38:20.464Z,35.78
2023-04-30T13:39:23.918Z,34.64
2023-04-30T13:40:27.192Z,35.21
2023-04-30T13:41:30.919Z,35.48
2023-04-30T13:42:33.695Z,35.71
2023-04-30T13:43:41.467Z,36.68
2023-04-30T13:44:47.109Z,35.89
2023-04-30T13:45:50.581Z,35.56
2023-04-30T13:46:54.925Z,35.77
2023-04-30T13:47:58.066Z,35.37
2023-04-30T13:49:05.383Z,35.17
2023-04-30T13:50:12.976Z,35.60
2023-04-30T13:51:16.473Z,35.76
2023-04-30T13:52:22.266Z,35.28
2023-04-30T13:53:25.564Z,35.20
2023-04-30T13:54:28.855Z,35.54
2023-04-30T13:55:32.466Z,35.42
2023-04-30T13:56:36.190Z,35.30
2023-04-30T13:57:40.442Z,34.72
2023-04-30T13:58:45.094Z,34.58
2023-04-30T13:59:48.613Z,34.73
2023-04-30T14:00:52.243Z,35.07
2023-04-30T14:01:55.823Z,34.52
2023-04-30T14:02:59.311Z,33.99
2023-04-30T14:04:03.100Z,34.51